Arickaree, Colorado
Current Conditions -  °F | °C
As of 10:55 AM on Thursday 23 Oct 2014 (Local Time) from KLIC Reporting Station
Clear Clear  
Wind Chill: 18°   Ceiling: Unl
Heat Index: 18°   Visibility: 10mi
Dew Point:   Wind: 3mph
Humidity: 32%   Direction: 250°WSW
Pressure: 30.2"   Gusts: NA
Location:  39.6673°N, 103.47°W
Report Text: KLIC 231655Z AUTO 25003KT 10SM CLR 18/01 A3020 RMK AO2 SLP182 T01830011
Loading
Personal Weather Stations






























Interactive Weather Map
Tropical Storm Tracking
New forecast layout! Learn more

10-Day Weather Forecast

Advertisements
Track Severe Weather on mobile